Time;durP1;ratioP1;P1;durP2;ratioP2;P2;SDS_P1;SDS_P2;PMS_P1;PMS_P2;Temp;Humidity;BMP_temperature;BMP_pressure;BME280_temperature;BME280_humidity;BME280_pressure;Samples;Min_cycle;Max_cycle;Signal;HPM_P1;HPM_P2
2023/10/18 00:03:12;;;;;;;3.15;1.25;;;;;;;18.70;40.99;101065.94;16116334;19;130356;-47
2023/10/18 00:08:34;;;;;;;3.33;1.13;;;;;;;18.66;40.98;101059.19;16113665;19;131395;-44
2023/10/18 00:13:56;;;;;;;2.35;1.00;;;;;;;18.65;41.01;101068.56;16113764;19;130575;-50
2023/10/18 00:19:18;;;;;;;2.42;1.13;;;;;;;18.63;41.29;101061.59;16111618;19;130859;-49
2023/10/18 00:24:40;;;;;;;3.83;1.00;;;;;;;18.59;40.95;101047.38;16115079;19;130218;-42
2023/10/18 00:30:07;;;;;;;1.88;1.08;;;;;;;18.58;41.45;101040.16;16113665;19;130550;-43
2023/10/18 00:35:31;;;;;;;1.38;1.00;;;;;;;18.57;41.31;101044.84;16109821;19;134023;-43
2023/10/18 00:40:56;;;;;;;2.73;1.30;;;;;;;18.55;41.47;101046.19;16122883;19;130568;-48
2023/10/18 00:46:18;;;;;;;2.25;1.30;;;;;;;18.52;41.29;101027.28;16130614;19;131039;-48
2023/10/18 00:51:44;;;;;;;2.85;1.08;;;;;;;18.52;41.38;101024.50;16123530;19;129672;-46
2023/10/18 00:57:07;;;;;;;2.78;1.33;;;;;;;18.49;41.04;101013.91;16126624;19;129356;-44
2023/10/18 01:02:29;;;;;;;3.55;1.40;;;;;;;18.46;41.41;100998.63;16125170;19;133771;-52
2023/10/18 01:07:53;;;;;;;3.17;1.48;;;;;;;18.45;40.99;100996.94;16121316;19;129460;-43
2023/10/18 01:13:15;;;;;;;2.50;1.10;;;;;;;18.43;41.28;101004.63;16119979;19;129750;-43
2023/10/18 01:18:37;;;;;;;3.63;1.17;;;;;;;18.41;41.47;100985.50;16120606;19;129738;-44
2023/10/18 01:23:59;;;;;;;2.53;1.02;;;;;;;18.39;41.00;100973.81;16122810;19;130272;-43
2023/10/18 01:29:22;;;;;;;2.05;1.00;;;;;;;18.38;41.27;100965.72;16117670;19;131432;-44
2023/10/18 01:34:47;;;;;;;5.57;1.53;;;;;;;18.35;41.13;100958.72;16125266;19;129370;-45
2023/10/18 01:40:29;;;;;;;2.60;1.00;;;;;;;18.35;41.07;100953.19;16121930;19;129862;-44
2023/10/18 01:45:51;;;;;;;4.15;1.10;;;;;;;18.33;40.86;100949.84;16121843;19;130586;-43
2023/10/18 01:51:12;;;;;;;2.17;1.40;;;;;;;18.31;41.10;100935.41;16119000;19;129840;-44
2023/10/18 01:56:35;;;;;;;2.13;1.10;;;;;;;18.29;40.92;100916.22;16112957;19;130543;-44
2023/10/18 02:01:59;;;;;;;2.08;1.45;;;;;;;18.28;40.86;100908.19;16116934;19;130083;-49
2023/10/18 02:07:21;;;;;;;2.40;1.20;;;;;;;18.24;41.28;100912.53;16118158;19;131604;-43
2023/10/18 02:12:44;;;;;;;2.65;1.40;;;;;;;18.25;41.14;100916.97;16118418;19;131343;-46
2023/10/18 02:18:09;;;;;;;4.00;1.20;;;;;;;18.23;41.20;100914.47;16114359;19;129475;-46
2023/10/18 02:23:34;;;;;;;2.10;1.25;;;;;;;18.22;41.03;100915.53;16118518;19;129969;-46
2023/10/18 02:28:59;;;;;;;2.65;1.17;;;;;;;18.21;40.83;100904.72;16115718;19;130721;-43
2023/10/18 02:34:23;;;;;;;1.53;0.90;;;;;;;18.20;40.94;100894.72;16114217;19;129636;-44
2023/10/18 02:39:51;;;;;;;1.42;1.00;;;;;;;18.18;40.98;100886.66;16115354;19;131503;-44
2023/10/18 02:45:30;;;;;;;2.60;1.20;;;;;;;18.17;40.78;100884.13;16114223;19;130218;-46
2023/10/18 02:50:54;;;;;;;2.22;1.15;;;;;;;18.15;41.04;100867.78;16117117;19;131162;-43
2023/10/18 02:56:32;;;;;;;3.22;1.20;;;;;;;18.13;41.19;100859.69;16115295;19;129374;-44
2023/10/18 03:01:56;;;;;;;1.33;1.05;;;;;;;18.12;40.87;100849.72;16113278;19;129737;-45
2023/10/18 03:07:18;;;;;;;1.80;1.02;;;;;;;18.10;40.97;100835.25;16111708;19;129417;-45
2023/10/18 03:12:44;;;;;;;2.95;1.00;;;;;;;18.10;40.86;100842.75;16113963;19;129907;-44
2023/10/18 03:18:08;;;;;;;2.15;1.10;;;;;;;18.08;41.25;100831.91;16112191;19;130502;-45
2023/10/18 03:23:31;;;;;;;2.53;1.38;;;;;;;18.07;41.16;100823.84;16112596;19;129448;-45
2023/10/18 03:28:53;;;;;;;2.53;1.00;;;;;;;18.06;41.16;100816.63;16111935;19;129757;-46
2023/10/18 03:34:25;;;;;;;2.47;1.45;;;;;;;18.04;40.82;100803.03;16112733;19;130936;-45
2023/10/18 03:39:49;;;;;;;1.67;1.08;;;;;;;18.03;41.00;100795.00;16110549;19;129517;-43
2023/10/18 03:45:11;;;;;;;2.10;1.10;;;;;;;18.02;41.07;100799.66;16108470;19;130727;-44
2023/10/18 03:50:40;;;;;;;1.50;1.00;;;;;;;17.99;41.02;100789.94;16110408;19;129728;-45
2023/10/18 03:56:04;;;;;;;1.98;1.20;;;;;;;17.98;40.65;100791.03;16107342;19;131884;-47
2023/10/18 04:01:41;;;;;;;1.27;1.00;;;;;;;17.99;40.95;100778.88;16109653;19;130663;-44
2023/10/18 04:07:16;;;;;;;4.03;1.27;;;;;;;17.96;40.51;100779.34;16108616;19;130319;-46
2023/10/18 04:12:40;;;;;;;2.13;1.08;;;;;;;17.95;40.65;100771.31;16115065;19;130359;-44
2023/10/18 04:18:11;;;;;;;4.00;1.58;;;;;;;17.94;40.55;100772.38;16125213;19;131433;-44
2023/10/18 04:23:34;;;;;;;2.00;1.30;;;;;;;17.95;40.84;100754.69;16125768;19;129370;-45
2023/10/18 04:29:01;;;;;;;4.80;1.55;;;;;;;17.92;40.85;100735.81;16124887;19;130418;-44
2023/10/18 04:34:24;;;;;;;1.77;0.93;;;;;;;17.91;40.79;100740.47;16123101;19;130440;-44
2023/10/18 04:39:46;;;;;;;4.50;1.10;;;;;;;17.90;40.61;100740.75;16123593;19;129950;-46
2023/10/18 04:45:16;;;;;;;1.55;1.00;;;;;;;17.90;40.61;100726.91;16126743;19;129816;-45
2023/10/18 04:50:39;;;;;;;2.28;1.10;;;;;;;17.87;40.42;100713.56;16123338;19;131444;-46
2023/10/18 04:56:03;;;;;;;2.33;1.17;;;;;;;17.86;40.84;100704.41;16119241;19;132105;-45
2023/10/18 05:01:34;;;;;;;2.33;1.10;;;;;;;17.85;40.86;100698.03;16118769;19;131568;-44
2023/10/18 05:06:59;;;;;;;4.20;1.10;;;;;;;17.84;40.85;100690.84;16119488;19;130005;-44
2023/10/18 05:17:43;;;;;;;3.05;1.13;;;;;;;17.84;40.35;100676.16;16115052;19;129476;-46
2023/10/18 05:23:05;;;;;;;1.58;1.10;;;;;;;17.81;40.59;100666.44;16110659;19;130760;-44
2023/10/18 05:28:28;;;;;;;5.03;1.10;;;;;;;17.81;40.10;100658.13;16111205;19;131669;-46
2023/10/18 05:33:56;;;;;;;5.50;1.60;;;;;;;17.99;39.61;100656.22;16117291;19;129528;-46
2023/10/18 05:44:42;;;;;;;3.70;1.10;;;;;;;18.59;38.66;100640.94;16110838;19;129275;-48
2023/10/18 05:50:12;;;;;;;3.85;1.22;;;;;;;18.80;38.58;100626.56;16065189;19;2990966;-45
2023/10/18 05:55:38;;;;;;;4.05;1.08;;;;;;;18.88;38.22;100615.03;16112795;19;130367;-49
2023/10/18 06:01:02;;;;;;;6.45;0.90;;;;;;;18.88;37.77;100613.09;16114604;19;131867;-45
2023/10/18 06:06:24;;;;;;;2.78;1.02;;;;;;;18.84;37.43;100614.69;16115042;19;130551;-47
2023/10/18 06:11:48;;;;;;;2.50;0.95;;;;;;;18.78;37.71;100618.47;16119972;19;129599;-45
2023/10/18 06:17:19;;;;;;;3.40;1.17;;;;;;;18.70;37.60;100611.47;16115819;19;129318;-46
2023/10/18 06:22:43;;;;;;;2.55;1.05;;;;;;;18.64;37.89;100606.09;16116524;19;129622;-47
2023/10/18 06:28:08;;;;;;;2.88;1.00;;;;;;;18.57;37.86;100603.50;16116163;19;129658;-47
2023/10/18 06:33:35;;;;;;;1.00;0.80;;;;;;;18.50;37.83;100595.38;16116107;19;130115;-46
2023/10/18 06:38:58;;;;;;;2.83;1.00;;;;;;;18.43;37.71;100590.00;16115409;19;131151;-46
2023/10/18 06:44:20;;;;;;;2.05;0.90;;;;;;;18.37;38.20;100585.44;16114287;19;130675;-48
2023/10/18 06:49:42;;;;;;;3.47;1.05;;;;;;;18.32;38.44;100577.06;16115674;19;129743;-45
2023/10/18 06:55:05;;;;;;;3.72;1.25;;;;;;;18.26;38.01;100573.38;16112524;19;130010;-44
2023/10/18 07:00:30;;;;;;;1.80;1.10;;;;;;;18.21;38.42;100575.22;16116644;19;130683;-46
2023/10/18 07:05:52;;;;;;;2.13;0.90;;;;;;;18.19;38.06;100567.16;16119853;19;129878;-46
2023/10/18 07:11:16;;;;;;;3.67;1.15;;;;;;;18.17;38.29;100557.44;16119878;19;131702;-45
2023/10/18 07:16:49;;;;;;;5.10;1.30;;;;;;;18.24;37.50;100552.53;16117095;19;131011;-45
2023/10/18 07:22:17;;;;;;;5.18;1.25;;;;;;;18.41;37.47;100556.19;16117574;19;129885;-45
2023/10/18 07:27:41;;;;;;;3.17;1.35;;;;;;;18.56;37.37;100551.97;16113149;19;131112;-46
2023/10/18 07:33:08;;;;;;;5.65;1.15;;;;;;;18.68;36.95;100547.16;16113934;19;130785;-49
2023/10/18 07:38:37;;;;;;;3.85;1.40;;;;;;;18.80;36.89;100535.94;16111921;19;129776;-46
2023/10/18 07:44:00;;;;;;;3.45;1.20;;;;;;;18.92;37.14;100535.81;16114047;19;129646;-46
2023/10/18 07:49:22;;;;;;;3.38;1.40;;;;;;;19.16;36.98;100524.44;16109460;19;129382;-49
2023/10/18 07:54:44;;;;;;;3.42;1.20;;;;;;;19.71;36.25;100518.91;16110544;19;131289;-47
2023/10/18 08:00:21;;;;;;;2.85;0.93;;;;;;;20.11;35.51;100510.16;16110975;19;129555;-45
2023/10/18 08:05:50;;;;;;;3.03;1.00;;;;;;;20.34;35.19;100510.00;16115086;19;129716;-47
2023/10/18 08:11:13;;;;;;;2.03;1.13;;;;;;;20.46;35.21;100499.50;16110088;19;132153;-49
2023/10/18 08:16:44;;;;;;;5.10;1.25;;;;;;;20.39;35.43;100488.63;16110642;19;131106;-45
2023/10/18 08:27:28;;;;;;;4.15;1.30;;;;;;;21.80;33.33;100458.16;16110309;19;129537;-46
2023/10/18 08:32:51;;;;;;;1.52;0.90;;;;;;;22.01;32.69;100458.16;16109026;19;131152;-50
2023/10/18 08:38:14;;;;;;;2.75;1.17;;;;;;;21.60;33.76;100447.06;16105163;19;129960;-45
2023/10/18 08:43:44;;;;;;;7.75;1.42;;;;;;;21.12;33.98;100445.31;16110377;19;129934;-50
2023/10/18 08:49:08;;;;;;;2.72;1.27;;;;;;;20.74;34.83;100437.09;16105291;19;129372;-48
2023/10/18 08:54:32;;;;;;;3.30;1.23;;;;;;;20.48;35.15;100435.34;16104812;19;129566;-46
2023/10/18 08:59:56;;;;;;;3.72;1.33;;;;;;;20.28;35.23;100432.19;16117608;19;129388;-49
2023/10/18 09:05:27;;;;;;;2.33;1.20;;;;;;;20.16;35.28;100416.84;16118314;19;129176;-49
2023/10/18 09:10:54;;;;;;;3.25;1.58;;;;;;;20.05;35.77;100410.41;16123418;19;130170;-45
2023/10/18 09:16:19;;;;;;;2.17;1.55;;;;;;;19.95;35.79;100402.81;16121274;19;131683;-46
2023/10/18 09:27:07;;;;;;;1.60;1.10;;;;;;;19.84;35.82;100390.78;16119576;19;130778;-47
2023/10/18 09:32:35;;;;;;;2.58;1.20;;;;;;;19.83;36.17;100378.00;16118994;19;130576;-47
2023/10/18 09:38:03;;;;;;;5.00;1.40;;;;;;;19.80;36.01;100375.81;16121174;19;129876;-46
2023/10/18 09:43:27;;;;;;;5.53;1.48;;;;;;;19.75;36.29;100356.31;16122190;19;129738;-46
2023/10/18 09:48:49;;;;;;;3.60;1.30;;;;;;;19.73;36.45;100339.97;16117759;19;129987;-51
2023/10/18 09:54:13;;;;;;;2.83;1.10;;;;;;;19.72;36.16;100335.50;16118819;19;131523;-47
2023/10/18 09:59:37;;;;;;;4.88;1.40;;;;;;;19.74;36.59;100329.69;16120775;19;130439;-47
2023/10/18 10:05:06;;;;;;;2.97;1.25;;;;;;;19.74;36.49;100318.56;16120772;19;129658;-47
2023/10/18 10:10:43;;;;;;;1.90;1.13;;;;;;;19.75;36.71;100309.16;16116370;19;129389;-44
2023/10/18 10:16:09;;;;;;;3.70;1.10;;;;;;;19.75;36.60;100298.03;16118921;19;129958;-55
2023/10/18 10:21:36;;;;;;;2.38;1.23;;;;;;;19.76;36.95;100283.88;16118057;19;129632;-48
2023/10/18 10:27:27;;;;;;;4.53;1.17;;;;;;;19.78;36.47;100280.88;16118013;19;129717;-42
2023/10/18 10:32:54;;;;;;;6.30;1.63;;;;;;;19.76;37.03;100289.44;16117149;19;130166;-47
2023/10/18 10:38:19;;;;;;;3.92;1.42;;;;;;;19.78;36.85;100280.88;16116830;19;130381;-47
2023/10/18 10:44:30;;;;;;;2.07;1.17;;;;;;;19.77;37.04;100265.31;16113465;19;129353;-44
2023/10/18 10:49:58;;;;;;;6.05;1.60;;;;;;;19.76;36.70;100236.69;16107011;19;130980;-48
2023/10/18 10:55:24;;;;;;;4.70;1.30;;;;;;;19.75;36.89;100231.44;16105008;19;132107;-46
2023/10/18 11:01:02;;;;;;;2.92;1.30;;;;;;;19.75;36.86;100215.63;16104983;19;131280;-48
2023/10/18 11:06:32;;;;;;;4.00;1.33;;;;;;;19.73;37.09;100209.53;16107984;19;129778;-46
2023/10/18 11:11:56;;;;;;;2.75;1.10;;;;;;;19.74;37.25;100197.31;16105041;19;132731;-46
2023/10/18 11:17:19;;;;;;;2.85;1.42;;;;;;;19.74;37.13;100185.38;16102850;19;130077;-48
2023/10/18 11:22:41;;;;;;;4.30;1.17;;;;;;;19.75;36.96;100173.16;16105824;19;131951;-46
2023/10/18 11:28:20;;;;;;;4.30;1.58;;;;;;;19.75;37.24;100153.72;16111052;19;131902;-47
2023/10/18 11:33:46;;;;;;;3.88;1.30;;;;;;;19.73;37.27;100150.38;16113558;19;129543;-46
2023/10/18 11:44:39;;;;;;;2.75;1.27;;;;;;;19.72;38.70;100124.59;16113811;19;129941;-47
2023/10/18 11:50:01;;;;;;;5.88;1.50;;;;;;;19.67;38.76;100119.88;16110594;19;130055;-55
2023/10/18 11:55:23;;;;;;;9.80;1.33;;;;;;;19.61;39.32;100103.47;16110003;19;130273;-49
2023/10/18 12:00:47;;;;;;;11.50;1.77;;;;;;;19.53;40.02;100096.50;16111057;19;129958;-46
2023/10/18 12:06:11;;;;;;;8.95;1.70;;;;;;;19.48;39.98;100082.63;16113199;19;132135;-47
2023/10/18 12:11:33;;;;;;;3.45;1.42;;;;;;;19.41;40.58;100065.41;16114513;19;129572;-45
2023/10/18 12:16:56;;;;;;;6.28;1.55;;;;;;;19.35;40.78;100061.78;16110101;19;129379;-46
2023/10/18 12:22:18;;;;;;;2.83;1.20;;;;;;;19.30;41.43;100045.97;16111473;19;130065;-44
2023/10/18 12:27:50;;;;;;;4.53;1.20;;;;;;;19.27;41.59;100026.25;16110275;19;129899;-47
2023/10/18 12:33:19;;;;;;;9.52;2.40;;;;;;;19.21;41.54;100011.53;16115999;19;131486;-47
2023/10/18 12:38:43;;;;;;;5.63;1.60;;;;;;;19.16;42.50;99998.47;16124151;19;130190;-45
2023/10/18 12:44:10;;;;;;;2.83;1.40;;;;;;;19.14;42.80;99994.28;16122635;19;130086;-49
2023/10/18 12:49:32;;;;;;;10.88;1.90;;;;;;;19.11;43.17;99979.06;16122270;19;129666;-45
2023/10/18 12:54:54;;;;;;;4.88;1.80;;;;;;;19.08;43.33;99963.78;16123704;19;134439;-49
2023/10/18 13:00:45;;;;;;;7.45;1.92;;;;;;;19.05;43.12;99947.72;16123146;19;130510;-44
2023/10/18 13:06:15;;;;;;;6.90;1.80;;;;;;;19.02;43.66;99945.47;16124333;19;130641;-46
2023/10/18 13:17:05;;;;;;;5.30;1.70;;;;;;;19.09;43.59;99917.50;16119481;19;130088;-47
2023/10/18 13:22:31;;;;;;;5.75;1.70;;;;;;;19.15;43.81;99896.97;16121981;19;131321;-48
2023/10/18 13:27:54;;;;;;;4.18;1.48;;;;;;;19.21;43.86;99889.53;16122812;19;130664;-46
2023/10/18 13:33:16;;;;;;;9.77;2.33;;;;;;;19.25;44.01;99878.75;16121043;19;129824;-48
2023/10/18 13:38:38;;;;;;;5.00;1.80;;;;;;;19.29;44.28;99866.81;16118290;19;129045;-46
2023/10/18 13:44:00;;;;;;;12.98;2.10;;;;;;;19.34;44.45;99850.16;16120374;19;130296;-48
2023/10/18 13:49:25;;;;;;;9.10;1.83;;;;;;;19.41;44.10;99835.19;16120237;19;129517;-48
2023/10/18 13:54:47;;;;;;;;;;;;;;;19.43;44.27;99824.66;16119079;19;130701;-47
2023/10/18 14:00:14;;;;;;;6.70;1.85;;;;;;;19.51;44.17;99813.00;16116994;19;130677;-47
2023/10/18 14:05:40;;;;;;;4.80;1.73;;;;;;;19.53;44.35;99802.44;16119456;19;129532;-46
2023/10/18 14:11:04;;;;;;;13.38;1.90;;;;;;;19.55;44.32;99794.69;16119196;19;129632;-47
2023/10/18 14:16:26;;;;;;;4.13;1.80;;;;;;;19.57;44.62;99781.34;16115871;19;132841;-46
2023/10/18 14:21:48;;;;;;;7.00;2.00;;;;;;;19.58;44.54;99773.88;16115817;19;129426;-48
2023/10/18 14:27:10;;;;;;;4.55;1.90;;;;;;;19.60;44.76;99780.78;16114336;19;129821;-47
2023/10/18 14:32:33;;;;;;;8.65;2.08;;;;;;;19.62;44.47;99775.78;16115343;19;132471;-48
2023/10/18 14:37:55;;;;;;;5.20;1.63;;;;;;;19.63;44.56;99762.78;16114361;19;131513;-47
2023/10/18 14:43:17;;;;;;;11.25;1.88;;;;;;;19.65;45.15;99738.31;16115080;19;129400;-45
2023/10/18 14:48:40;;;;;;;7.30;1.83;;;;;;;19.66;44.82;99740.84;16117094;19;129815;-48
2023/10/18 14:54:02;;;;;;;3.95;1.52;;;;;;;19.66;45.07;99724.19;16114643;19;129554;-47
2023/10/18 14:59:24;;;;;;;3.33;1.40;;;;;;;19.66;45.17;99706.69;16114481;19;131223;-48
2023/10/18 15:04:52;;;;;;;3.38;1.25;;;;;;;19.68;45.10;99710.88;16114423;19;130950;-45
2023/10/18 15:10:16;;;;;;;3.85;1.73;;;;;;;19.67;45.30;99709.19;16115138;19;129415;-49
2023/10/18 15:15:38;;;;;;;2.78;1.40;;;;;;;19.65;45.40;99703.09;16115420;19;129335;-47
2023/10/18 15:21:00;;;;;;;8.07;1.80;;;;;;;19.64;45.40;99706.97;16111151;19;132891;-49
2023/10/18 15:26:37;;;;;;;5.05;1.60;;;;;;;19.64;45.34;99703.38;16111848;19;130148;-45
2023/10/18 15:31:59;;;;;;;4.15;2.03;;;;;;;19.63;45.38;99693.41;16114332;19;129838;-47
2023/10/18 15:37:21;;;;;;;8.63;1.60;;;;;;;19.60;45.11;99692.00;16108793;19;129619;-46
2023/10/18 15:42:43;;;;;;;12.13;2.05;;;;;;;19.61;45.11;99690.91;16107451;19;129264;-46
2023/10/18 15:48:09;;;;;;;8.27;1.50;;;;;;;19.62;45.31;99677.88;16107204;19;129436;-47
2023/10/18 15:53:33;;;;;;;9.70;1.40;;;;;;;19.62;45.61;99672.31;16109367;19;130416;-47
2023/10/18 15:59:17;;;;;;;6.50;1.65;;;;;;;19.63;45.44;99660.94;16110085;19;129352;-46
2023/10/18 16:04:40;;;;;;;2.97;1.40;;;;;;;19.62;45.65;99653.72;16112056;19;129627;-47
2023/10/18 16:10:03;;;;;;;4.57;1.50;;;;;;;19.63;45.74;99644.28;16124529;19;131007;-46
2023/10/18 16:15:27;;;;;;;8.30;1.83;;;;;;;19.63;45.87;99635.97;16122991;19;131057;-46
2023/10/18 16:20:59;;;;;;;5.75;1.65;;;;;;;19.66;45.42;99629.84;16122149;19;130280;-46
2023/10/18 16:26:23;;;;;;;4.50;1.77;;;;;;;19.67;45.78;99620.41;16123551;19;129648;-46
2023/10/18 16:31:46;;;;;;;2.33;1.40;;;;;;;19.69;45.95;99618.16;16124669;19;129637;-49
2023/10/18 16:37:08;;;;;;;5.18;1.75;;;;;;;19.71;46.10;99617.06;16117438;19;130947;-46
2023/10/18 16:42:30;;;;;;;4.45;1.83;;;;;;;19.73;45.65;99610.13;16119812;19;129613;-47
2023/10/18 16:47:57;;;;;;;3.53;1.83;;;;;;;19.74;46.15;99605.38;16122669;19;129712;-46
2023/10/18 16:53:19;;;;;;;3.80;1.83;;;;;;;19.69;46.58;99598.75;16123129;19;129706;-46
2023/10/18 16:58:41;;;;;;;3.88;2.45;;;;;;;19.65;46.45;99594.91;16122756;19;129525;-45
2023/10/18 17:04:04;;;;;;;3.28;1.55;;;;;;;19.59;46.83;99579.38;16119727;19;129763;-46
2023/10/18 17:09:26;;;;;;;4.35;1.90;;;;;;;19.53;46.55;99575.81;16122087;19;130191;-46
2023/10/18 17:14:49;;;;;;;3.75;1.92;;;;;;;19.46;46.94;99574.44;16119888;19;129402;-46
2023/10/18 17:20:15;;;;;;;4.10;1.73;;;;;;;19.41;47.22;99574.50;16117077;19;130565;-46
2023/10/18 17:25:38;;;;;;;4.35;1.58;;;;;;;19.34;47.17;99564.53;16118037;19;130299;-49
2023/10/18 17:31:00;;;;;;;4.88;1.80;;;;;;;19.28;47.22;99560.13;16115892;19;134767;-46
2023/10/18 17:36:22;;;;;;;4.05;1.80;;;;;;;19.25;47.29;99557.09;16119891;19;130918;-45
2023/10/18 17:41:44;;;;;;;4.82;1.60;;;;;;;19.20;47.50;99555.16;16117156;19;133680;-51
2023/10/18 17:47:08;;;;;;;4.93;2.00;;;;;;;19.16;47.27;99542.97;16115043;19;129468;-45
2023/10/18 17:52:30;;;;;;;3.15;1.85;;;;;;;19.12;47.20;99545.47;16118089;19;130493;-46
2023/10/18 17:57:58;;;;;;;3.50;1.90;;;;;;;19.07;47.38;99529.69;16122721;19;130985;-46
2023/10/18 18:03:22;;;;;;;4.45;1.98;;;;;;;19.03;47.65;99517.50;16117548;19;129722;-46
2023/10/18 18:08:44;;;;;;;9.52;2.42;;;;;;;19.01;48.43;99496.75;16120123;19;130635;-48
2023/10/18 18:14:06;;;;;;;8.43;2.13;;;;;;;19.17;48.56;99486.41;16118124;19;130577;-46
2023/10/18 18:19:28;;;;;;;10.85;1.70;;;;;;;19.47;48.13;99476.25;16116945;19;129207;-47
2023/10/18 18:24:51;;;;;;;5.97;1.88;;;;;;;19.89;47.48;99472.09;16116981;19;130182;-49
2023/10/18 18:30:14;;;;;;;8.77;1.75;;;;;;;20.29;47.21;99450.66;16114770;19;130457;-47
2023/10/18 18:35:36;;;;;;;10.05;1.90;;;;;;;20.59;46.61;99445.84;16117123;19;131881;-46
2023/10/18 18:40:58;;;;;;;21.08;1.60;;;;;;;20.73;46.59;99428.47;16115552;19;130389;-48
2023/10/18 18:46:20;;;;;;;11.23;2.17;;;;;;;20.75;46.59;99426.22;16114131;19;130679;-48
2023/10/18 18:51:58;;;;;;;8.15;2.00;;;;;;;20.71;46.55;99436.28;16114687;19;130494;-48
2023/10/18 18:57:20;;;;;;;8.88;1.70;;;;;;;20.63;46.60;99406.38;16114375;19;131264;-48
2023/10/18 19:02:48;;;;;;;13.02;2.00;;;;;;;20.55;46.84;99394.81;16116556;19;130558;-48
2023/10/18 19:08:10;;;;;;;5.90;2.00;;;;;;;20.43;47.03;99380.50;16110805;19;130391;-48
2023/10/18 19:13:32;;;;;;;5.43;1.80;;;;;;;20.35;47.15;99372.81;16114893;19;130284;-49
2023/10/18 19:18:54;;;;;;;7.40;1.77;;;;;;;20.24;47.58;99372.94;16114210;19;130274;-47
2023/10/18 19:24:16;;;;;;;9.52;2.00;;;;;;;20.15;47.89;99371.94;16113698;19;131516;-47
2023/10/18 19:29:38;;;;;;;3.88;1.63;;;;;;;20.06;47.87;99348.72;16111244;19;130033;-47
2023/10/18 19:35:00;;;;;;;7.75;2.10;;;;;;;20.04;48.10;99343.44;16112680;19;131494;-45
2023/10/18 19:40:22;;;;;;;5.13;2.00;;;;;;;20.02;48.15;99336.53;16109922;19;130882;-46
2023/10/18 19:45:44;;;;;;;4.15;1.80;;;;;;;20.01;48.27;99316.28;16112452;19;131157;-45
2023/10/18 19:51:06;;;;;;;3.67;1.73;;;;;;;20.05;48.31;99311.78;16108173;19;132067;-47
2023/10/18 19:56:28;;;;;;;4.20;1.77;;;;;;;20.20;47.97;99315.50;16112985;19;130188;-46
2023/10/18 20:01:52;;;;;;;3.33;1.67;;;;;;;20.46;47.48;99302.13;16110511;19;130873;-50
2023/10/18 20:07:15;;;;;;;4.60;1.95;;;;;;;20.71;47.00;99311.22;16109800;19;129240;-46
2023/10/18 20:12:38;;;;;;;4.97;2.15;;;;;;;20.86;46.64;99294.34;16110105;19;129999;-46
2023/10/18 20:18:00;;;;;;;4.95;1.92;;;;;;;20.93;46.75;99293.13;16105870;19;131343;-47
2023/10/18 20:23:23;;;;;;;4.38;1.83;;;;;;;20.93;46.56;99291.19;16107102;19;129693;-48
2023/10/18 20:28:45;;;;;;;5.93;1.90;;;;;;;20.89;46.62;99281.81;16107507;19;129687;-48
2023/10/18 20:34:07;;;;;;;2.63;1.13;;;;;;;20.88;46.10;99252.34;16106177;19;131323;-46
2023/10/18 20:39:29;;;;;;;4.72;1.73;;;;;;;20.86;46.12;99277.69;16109379;19;129983;-48
2023/10/18 20:45:19;;;;;;;4.43;1.53;;;;;;;20.80;46.00;99270.53;16105833;19;131395;-50
2023/10/18 20:50:42;;;;;;;2.55;1.40;;;;;;;20.70;46.55;99245.66;16105984;19;130601;-46
2023/10/18 20:56:07;;;;;;;2.75;1.35;;;;;;;20.62;46.61;99246.34;16115647;19;130140;-47
2023/10/18 21:01:34;;;;;;;3.25;1.58;;;;;;;20.49;46.47;99234.03;16118769;19;129683;-48
2023/10/18 21:06:56;;;;;;;2.42;1.40;;;;;;;20.40;46.81;99236.66;16121507;19;129635;-48
2023/10/18 21:12:20;;;;;;;4.63;1.40;;;;;;;20.28;46.76;99237.94;16120535;19;129603;-46
2023/10/18 21:17:45;;;;;;;3.38;1.50;;;;;;;20.20;47.29;99226.66;16118979;19;130206;-49
2023/10/18 21:23:08;;;;;;;2.33;1.57;;;;;;;20.11;47.14;99220.94;16118948;19;128953;-49
2023/10/18 21:28:30;;;;;;;2.53;1.50;;;;;;;20.04;47.28;99223.28;16120177;19;129617;-46
2023/10/18 21:33:55;;;;;;;2.03;1.23;;;;;;;19.96;47.34;99206.09;16117859;19;130338;-47
2023/10/18 21:39:17;;;;;;;4.70;1.30;;;;;;;19.92;47.25;99216.16;16118886;19;130905;-46
2023/10/18 21:44:39;;;;;;;3.33;1.80;;;;;;;19.88;47.10;99198.44;16120423;19;130271;-46
2023/10/18 21:50:02;;;;;;;2.42;1.30;;;;;;;19.84;47.38;99189.06;16119758;19;130145;-48
2023/10/18 21:55:24;;;;;;;3.03;1.27;;;;;;;19.79;47.35;99184.41;16117455;19;129695;-47
2023/10/18 22:00:46;;;;;;;3.90;1.20;;;;;;;19.75;47.74;99177.81;16117773;19;130772;-45
2023/10/18 22:06:08;;;;;;;3.15;1.50;;;;;;;19.69;47.43;99162.34;16120085;19;129532;-45
2023/10/18 22:11:30;;;;;;;2.70;1.20;;;;;;;19.64;47.31;99157.69;16116704;19;130842;-46
2023/10/18 22:16:55;;;;;;;2.35;1.35;;;;;;;19.61;47.37;99154.69;16116716;19;129225;-47
2023/10/18 22:22:21;;;;;;;5.75;1.35;;;;;;;19.57;47.79;99146.09;16119521;19;129205;-46
2023/10/18 22:27:46;;;;;;;2.25;1.17;;;;;;;19.53;47.79;99137.56;16113141;19;130679;-45
2023/10/18 22:33:08;;;;;;;1.83;1.10;;;;;;;19.51;47.63;99133.44;16112016;19;130657;-46
2023/10/18 22:38:32;;;;;;;2.33;1.17;;;;;;;19.48;47.60;99136.78;16115939;19;129410;-45
2023/10/18 22:43:55;;;;;;;2.53;1.40;;;;;;;19.46;47.87;99127.94;16114003;19;129628;-47
2023/10/18 22:49:25;;;;;;;1.73;1.00;;;;;;;19.44;47.58;99127.44;16112868;19;129802;-46
2023/10/18 22:54:47;;;;;;;2.20;1.00;;;;;;;19.42;47.45;99118.56;16111644;19;130379;-46
2023/10/18 23:00:13;;;;;;;1.77;1.30;;;;;;;19.40;47.68;99115.25;16112230;19;130529;-46
2023/10/18 23:05:35;;;;;;;1.65;1.00;;;;;;;19.37;47.61;99117.50;16118401;19;134560;-48
2023/10/18 23:11:02;;;;;;;0.90;0.80;;;;;;;19.35;47.73;99121.69;16114733;19;130455;-45
2023/10/18 23:33:42;;;;;;;1.35;0.90;;;;;;;19.26;47.94;99149.25;16111674;19;132205;-46
2023/10/18 23:39:09;;;;;;;2.88;1.00;;;;;;;19.25;47.51;99163.41;16110854;19;130604;-49
2023/10/18 23:44:33;;;;;;;1.50;1.00;;;;;;;19.22;47.48;99154.56;16111329;19;129574;-51
2023/10/18 23:50:01;;;;;;;2.57;1.00;;;;;;;19.20;47.67;99162.31;16109977;19;131004;-46
2023/10/18 23:55:39;;;;;;;1.10;0.90;;;;;;;19.19;47.74;99165.38;16109362;19;130786;-46
